Capitol Logistics 949


KORD
Chicago O'Hare International Airport
Chicago, Illinois, US
RKSI
Incheon International Airport
Seoul, , KR

Route Details

Aircraft Information
Primary: Boeing 747-400BCF
Backup: Boeing 777-200LRF
Route Data
Distance: 5687nm
Sched. Duration: 13h 40m
Avg. Duration: 17h 07m (+368m)
Times Flown: 1
Recm'd Route: PMPKN NEATO DLLAN RONIC BAE GRB YQT YYQ 6130N/10000W 6500N/11000W 6700N/12000W 6800N/13000W 6800N/14000W POTAT NCA30 OME R338 ICEEE R338 MARCC R338 NATES R220 NIKLL R220 NYMPH R220 NIPPI R220 NANNO R220 NODAN NIKON IXE Y88 CHINO Y16 SAPRA Y685 CUN G585 GUKDO GUKDO1N
Planned Altitude: 30,000ft
Origin Wx: KORD 271651Z 28014G20KT 10SM SCT034 BKN041 BKN250 M02/M10 A3004 RMK AO2 SLP181 T10221100
Dest. Wx: RKSI 271700Z 13001KT CAVOK 03/M01 Q1026 NOSIG
Notes:

Financial History
Total Freight: 92,723lbs
Average Load: 92,723lbs/flt
Fuel Used: 253,597lbs
Avg. Fuel Used: 253,597lbs/flt
Fuel Expense: $311,924
Avg. Fuel Expense: $311,924
Avg. Fuel Cost: $1.23/lbs
Total Gross Income: $351,420
Pilot Pay: $229
Total Expenses: $38,005
Total Revenue: $-2,604
Average Revenue: $351,420.16